Centerville, TX

3:15 PM CDT on April 26, 2017 (GMT -0500)
Hillside | | Change Station
Active Advisory: Wind Advisory

Elev 387 ft 31.27 °N, 95.96 °W | Updated 35 seconds ago

Partly Cloudy
Partly Cloudy
73.7 °F
Feels Like 74 °F
N
20.0
Wind Variable Wind from NNW
Gusts 28.0 mph

Today
High -- | Low -- °F
--% Chance of Precip.
Yesterday
High -- | Low -- °F
Precip. -- in
Pressure 29.51 in
Visibility 10.0 miles
Clouds Few 100 ft
Few 1600 ft
Heat Index 74 °F
Dew Point 68 °F
Humidity 82%
Rainfall 0.00 in
Snow Depth Not available.
6:43 AM 8:00 PM
New Moon, 0% visible
METAR KDKR 261955Z AUTO 21013G19KT 10SM FEW001 FEW016 30/22 A2951 RMK AO2
Pressure 29.51 in
Visibility 10.0 miles
Clouds Few 100 ft
Few 1600 ft
Heat Index 74 °F
Dew Point 68 °F
Humidity 82%
Rainfall 0.00 in
Snow Depth Not available.
6:43 AM 8:00 PM
New Moon, 0% visible
METAR KDKR 261955Z AUTO 21013G19KT 10SM FEW001 FEW016 30/22 A2951 RMK AO2

Get Your Daily Forecast Email!

Thanks for signing up!

Be on the lookout for a verification email in your inbox.

You'll start receiving severe weather alerts in your inbox..

×

10-Day Weather Forecast

Almanac

Astronomy

Apr. 26, 2017 Rise Set
Actual Time
Civil Twilight
Nautical Twilight
Astronomical Twilight
Moon
Length of Visible Light
Length of Day
Tomorrow will be .
, % of the Moon is Illuminated

Today's Extremes

State Highs State Lows

Community

WunderPhotos

WunderBlog® & News

Nearby

Air Quality

  Air Quality AQ Index Pollutant
Not available.

Snow Depth

Station Depth Elevation

Earthquake Activity

City Distance Mag. Time & Date
Minimum magnitude displayed is 2.5.

Coastal Water Temperatures

Place Temperature

Stations

Nearby Weather Stations

Station Location Temp. Windchill Dew Point Humidity Wind Precip. Elev Updated Type
                   

Watches & Warnings

Wind Advisory
Issued: 10:28 AM CDT Apr. 26, 2017 – National Weather Service

... Wind Advisory remains in effect until 7 PM CDT this evening...

* timing... from noon to 7 PM CDT this evening.

* Winds... northwest winds 20 to 30 mph, with gusts to 35 mph.

* Impacts... dangerous Crosswinds on highways, especially north to
south oriented roads. Open waters on area lakes will become
very choppy and hazardous to boaters.

Precautionary/preparedness actions...

A Wind Advisory means that sustained winds of at least 20 to
30 mph are expected. Winds this strong can make driving
difficult... especially for high profile vehicles. Boaters should
use extra caution when venturing onto area lakes. Residents may
wish to take action to secure trash cans... lawn furniture... and
other lightweight outdoor objects that may be blown around in the
strong winds.